Date,TemperatureHighF,TemperatureAvgF,TemperatureLowF,DewpointHighF,DewpointAvgF,DewpointLowF,HumidityHigh,HumidityAvg,HumidityLow,PressureMaxIn,PressureMinIn,WindSpeedMaxMPH,WindSpeedAvgMPH,GustSpeedMaxMPH,PrecipitationSumIn
2014-1-1,2,-9,-20,-2,-14,-23,87,77,62,30.44,30.18,9,2,11,0.00
2014-1-2,-1,-14,-23,-9,-19,-26,85,79,62,30.38,30.28,5,0,6,0.00
2014-1-3,16,-4,-25,11,-8,-29,90,82,73,30.32,29.71,21,4,32,0.00
2014-1-4,29,22,16,25,18,9,90,82,71,29.91,29.52,11,4,19,0.00
2014-1-5,22,16,10,15,11,4,89,80,67,30.02,29.74,11,3,19,0.00
2014-1-6,10,1,-6,4,-4,-11,86,78,62,29.73,29.62,11,4,19,0.00
2014-1-7,8,-2,-9,1,-8,-14,80,75,68,30.00,29.64,15,4,18,0.00
2014-1-8,17,8,-2,8,2,-8,86,79,68,30.30,30.00,10,3,16,0.00
2014-1-9,21,11,-2,13,6,-4,90,82,69,30.41,30.12,7,2,12,0.00
2014-1-10,32,25,18,31,23,14,96,90,83,30.11,29.50,10,6,13,0.00
2014-1-11,36,34,32,35,32,30,98,95,89,29.48,29.10,10,3,20,0.23
2014-1-12,34,32,31,30,29,27,91,86,77,29.60,29.35,11,3,16,0.00
2014-1-13,39,33,29,36,30,22,94,87,76,29.48,29.29,11,2,16,0.11
2014-1-14,29,27,22,25,22,20,95,83,72,29.65,29.48,12,3,17,0.00
2014-1-15,21,13,8,20,10,6,93,87,78,29.78,29.58,20,4,23,0.00
2014-1-16,24,21,16,22,19,14,93,90,85,29.64,29.46,15,8,22,0.00
2014-1-17,30,24,17,27,22,15,95,91,85,29.70,29.52,9,2,13,0.00
2014-1-18,20,12,-2,15,9,-4,92,87,72,29.78,29.55,5,1,7,0.00
2014-1-19,25,18,7,22,14,0,94,84,71,29.54,29.19,9,3,20,0.00
2014-1-20,6,-2,-13,0,-9,-17,82,74,51,30.11,29.52,10,3,15,0.00
2014-1-21,0,-14,-28,-9,-19,-33,86,79,65,30.23,30.10,4,0,7,0.00
2014-1-22,4,0,-7,0,-4,-11,87,83,80,30.10,29.86,15,6,21,0.00
2014-1-23,4,-4,-15,1,-10,-19,87,77,60,30.36,30.02,11,3,17,0.00
2014-1-24,19,9,-16,17,6,-19,91,88,83,30.21,29.10,14,2,19,0.00
2014-1-25,18,6,-4,16,1,-8,92,80,61,29.53,29.03,15,3,26,0.00
2014-1-26,4,-6,-25,1,-9,-29,89,85,79,29.54,29.26,7,2,11,0.00
2014-1-27,4,-2,-12,1,-7,-15,88,81,66,29.94,29.33,7,2,14,0.00
2014-1-28,7,-1,-10,0,-7,-15,88,77,60,30.00,29.74,11,3,19,0.00
2014-1-29,17,9,2,11,3,-2,88,78,64,29.84,29.67,11,4,19,0.00
2014-1-30,29,23,15,23,18,10,93,82,71,29.78,29.41,11,5,19,0.00
2014-1-31,16,14,11,13,9,7,89,81,71,29.99,29.59,13,2,13,0.00
2014-2-1,20,15,11,16,12,9,92,88,82,30.01,29.85,7,1,9,0.00
2014-2-2,19,12,-5,14,8,-8,91,84,70,30.16,29.88,10,1,16,0.00
2014-2-3,19,2,-18,9,-4,-21,89,78,55,30.22,30.16,9,1,11,0.00
2014-2-4,23,9,-5,14,4,-8,91,81,61,30.34,30.20,8,1,10,0.00
2014-2-5,15,5,-6,6,0,-8,90,81,65,30.27,30.13,12,2,17,0.00
2014-2-6,18,8,1,5,3,-2,89,80,59,30.23,29.97,8,1,15,0.00
2014-2-7,15,8,-1,7,2,-5,88,77,64,29.99,29.90,11,4,19,0.00
2014-2-8,20,5,-8,8,-1,-11,89,77,56,30.11,29.99,9,1,11,0.00
2014-2-9,18,2,-10,8,-4,-14,87,80,59,30.10,29.96,6,1,13,0.00
2014-2-10,11,1,-10,1,-4,-14,88,79,51,30.31,30.09,9,1,19,0.00
2014-2-11,14,-2,-17,2,-8,-21,88,78,55,30.40,30.26,7,1,10,0.00
2014-2-12,21,14,-10,16,10,-13,93,84,79,30.25,29.94,18,3,18,0.00
2014-2-13,23,20,15,20,17,13,92,88,82,29.95,29.47,19,8,23,0.00
2014-2-14,26,18,10,21,15,5,93,88,82,29.73,29.40,12,4,21,0.00
2014-2-15,14,5,-11,5,-1,-14,88,76,57,29.98,29.73,9,1,12,0.00
2014-2-16,16,6,-14,6,0,-18,90,76,54,30.29,29.94,8,2,11,0.00
2014-2-17,18,4,-17,11,-2,-21,89,79,65,30.32,29.75,23,8,30,0.00
2014-2-18,29,19,6,20,15,1,92,85,68,29.76,29.51,14,4,14,0.00
2014-2-19,37,25,15,28,21,13,95,86,65,29.81,29.50,7,1,18,0.05
2014-2-20,34,24,8,31,20,6,95,86,73,29.89,29.33,27,9,37,0.00
2014-2-21,33,33,33,31,31,31,93,92,92,29.32,29.18,34,26,43,0.00
2014-3-11,34,27,23,25,17,-100,86,76,67,29.77,0.00,10,-35,16,0.00
2014-3-12,24,9,0,20,1,-7,87,70,49,30.02,29.78,16,7,20,0.00
2014-3-13,23,7,-16,17,1,-19,88,79,53,30.02,29.67,11,2,16,0.00
2014-3-14,44,31,22,35,28,17,96,87,71,29.66,29.26,7,3,14,0.08
2014-3-15,32,17,4,30,11,0,95,80,60,30.30,29.46,14,4,22,0.00
2014-3-16,15,4,-9,0,-7,-14,82,63,40,30.45,30.20,15,2,15,0.00
2014-3-17,20,6,-12,13,0,-16,86,77,52,30.19,29.92,18,6,22,0.00
2014-3-18,30,23,15,23,17,10,90,78,70,30.00,29.94,13,7,16,0.00
2014-3-19,31,30,28,29,25,19,95,83,64,29.94,29.50,14,6,27,0.00
2014-3-20,31,26,12,29,22,10,95,85,72,29.93,29.53,17,4,23,0.00
2014-3-21,37,19,0,25,14,-3,93,82,58,29.99,29.77,10,3,15,0.09
2014-3-22,26,18,8,25,14,3,96,85,69,30.21,29.73,19,4,30,0.00
2014-3-23,20,8,-7,6,0,-11,90,72,47,30.29,30.22,13,2,23,0.00
2014-3-24,26,5,-15,14,-1,-19,91,77,42,30.26,29.92,10,1,17,0.00
2014-3-25,19,5,-10,11,-2,-14,90,74,42,30.08,29.82,12,2,23,0.00
2014-3-26,29,8,-15,12,-1,-18,88,69,42,30.19,30.04,12,2,14,0.00
2014-3-27,33,28,18,32,25,11,97,90,72,30.03,29.52,9,5,12,0.00
2014-3-28,37,33,23,35,30,20,97,89,71,30.16,29.42,10,2,17,0.40
2014-3-29,35,23,18,24,19,16,92,86,60,30.26,30.16,7,1,7,0.00
2014-3-30,40,35,28,25,21,17,76,58,49,30.16,30.00,11,4,13,0.00
2014-3-31,43,35,25,29,22,15,79,61,48,30.08,29.84,19,6,23,0.00
2014-4-1,40,34,24,35,30,19,93,85,60,29.84,29.52,18,8,25,0.25
2014-4-2,35,26,19,22,19,15,90,75,53,30.19,29.82,11,4,17,0.02
2014-4-3,38,26,9,27,19,7,94,77,55,30.23,29.93,10,3,14,0.00
2014-4-4,37,34,27,32,29,25,96,83,66,29.90,29.27,27,9,31,0.08
2014-4-5,33,25,18,23,19,14,93,78,48,30.01,29.48,17,4,20,0.05
2014-4-6,54,35,10,34,26,8,95,72,41,30.00,29.87,14,2,17,0.12
2014-4-7,52,41,32,33,30,27,91,68,41,29.90,29.54,9,3,14,0.00
2014-4-8,45,38,30,35,31,27,91,77,63,29.75,29.45,13,4,21,0.00
2014-4-9,52,38,24,31,26,22,93,67,31,29.83,29.58,10,2,21,0.00
2014-4-10,54,44,36,42,33,27,91,67,42,29.71,29.35,13,3,20,0.09
2014-4-11,55,40,25,32,28,24,93,66,32,29.89,29.71,7,2,17,0.00
2014-4-12,40,35,29,35,31,28,96,87,69,30.06,29.84,16,5,16,0.03
2014-4-13,44,39,34,42,37,33,97,94,89,29.84,29.63,16,4,19,0.06
2014-4-14,38,31,22,38,30,20,97,94,88,29.81,29.32,16,5,22,0.91
2014-4-15,23,20,11,19,12,8,92,75,54,30.12,29.79,18,5,26,0.00
2014-4-16,35,23,6,29,15,4,95,74,41,30.33,30.12,11,4,15,0.00
2014-4-17,39,34,28,30,28,27,95,81,63,30.35,30.12,23,10,26,0.02
2014-4-18,39,34,28,32,30,26,94,86,76,30.32,30.12,9,3,14,0.00
2014-4-19,41,34,26,32,28,26,96,80,57,30.44,30.21,15,5,18,0.00
2014-4-20,39,36,34,37,34,28,96,92,73,30.26,29.95,10,3,14,0.83
2014-4-21,48,40,33,46,38,32,98,96,89,29.94,29.62,5,1,6,0.00
2014-4-22,44,37,32,38,33,29,98,86,72,29.89,29.60,15,4,22,0.00
2014-4-23,46,37,29,29,24,17,87,62,33,30.04,29.89,13,4,15,0.00
2014-4-24,50,38,27,32,27,23,93,68,36,30.08,29.88,10,3,13,0.00
2014-4-25,44,40,34,34,29,23,94,67,51,29.88,29.63,27,10,27,0.10
2014-4-26,45,37,28,36,31,26,97,82,54,30.08,29.68,10,3,13,0.19
2014-4-27,51,38,26,32,27,24,94,68,39,30.19,30.07,14,3,14,0.00
2014-4-28,52,44,33,31,27,22,79,52,35,30.17,29.90,20,9,24,0.00
2014-4-29,47,44,41,42,37,27,96,77,48,29.91,29.63,37,15,44,0.46
2014-4-30,44,42,40,43,41,39,97,96,94,29.75,29.67,23,10,25,0.41
2014-5-1,44,42,40,43,41,38,98,96,92,29.66,29.52,8,1,11,0.55
2014-5-2,45,41,37,44,40,37,97,96,92,29.57,29.48,5,1,6,0.18
2014-5-3,45,40,37,43,40,37,98,96,92,29.64,29.49,8,2,14,0.20
2014-5-4,49,41,33,39,36,31,95,85,68,29.98,29.63,10,3,20,0.00
2014-5-5,49,39,29,41,34,29,97,85,59,30.02,29.93,6,1,8,0.00
2014-5-6,53,42,28,37,32,27,96,71,44,30.07,29.97,8,2,13,0.01
2014-5-7,52,46,38,34,32,30,76,58,46,30.09,29.95,19,7,23,0.00
2014-5-8,56,48,43,49,40,31,93,75,55,30.01,29.73,20,8,35,0.70
2014-5-9,66,53,47,63,50,44,98,90,75,29.72,29.38,11,4,20,0.49
2014-5-10,53,47,38,46,41,36,93,79,62,29.81,29.49,13,3,19,0.00
2014-5-11,67,51,34,50,42,33,96,74,51,29.90,29.80,9,2,12,0.00
2014-5-12,52,50,45,44,42,40,92,75,67,29.97,29.85,13,6,19,0.00
2014-5-13,54,48,42,53,47,40,97,94,79,29.93,29.70,17,5,20,0.52
2014-5-14,57,46,35,43,38,32,98,76,49,30.07,29.93,11,2,18,0.00
2014-5-15,42,40,36,41,38,34,96,90,77,30.03,29.68,13,5,21,0.28
2014-5-16,44,37,30,34,32,28,96,83,62,29.94,29.76,19,3,19,0.01
2014-5-17,48,39,29,41,34,28,94,82,63,29.97,29.91,8,2,13,0.06
2014-5-18,67,49,30,44,37,30,97,67,35,30.02,29.95,11,3,17,0.00
2014-5-19,73,54,38,50,42,35,92,68,31,30.08,29.98,10,2,15,0.00
2014-5-20,51,48,46,47,45,42,95,89,76,30.01,29.81,15,5,24,0.17
2014-5-21,65,50,45,57,48,43,96,91,70,29.82,29.70,10,2,16,0.23
2014-5-22,49,44,40,45,42,39,97,91,81,29.97,29.78,14,5,22,0.00
2014-5-23,66,53,39,50,43,38,96,73,46,30.05,29.95,14,4,18,0.00
2014-5-24,78,68,44,48,45,39,81,45,30,30.05,29.97,10,3,13,0.00
2014-5-25,83,65,45,55,47,43,93,57,28,29.99,29.84,13,2,15,0.00
2014-5-26,80,65,47,63,54,44,91,70,44,29.86,29.71,10,2,20,0.00
2014-5-27,71,58,45,59,50,40,97,76,48,29.87,29.72,11,3,20,0.00
2014-5-28,70,55,39,54,47,37,95,76,55,30.05,29.87,9,2,10,0.00
2014-5-29,79,60,42,58,50,41,95,72,39,30.10,29.98,9,2,12,0.00
2014-5-30,75,61,49,60,53,47,94,76,58,30.10,30.01,10,2,13,0.00
2014-5-31,71,61,48,54,48,42,96,67,37,30.16,30.02,16,5,19,0.00
2014-6-1,76,63,52,57,50,43,90,64,45,30.02,29.77,12,4,14,0.00
2014-6-2,66,61,54,65,59,52,97,93,87,29.77,29.49,9,2,13,0.61
2014-6-3,62,57,50,61,54,47,98,89,72,29.72,29.46,11,2,20,0.17
2014-6-4,66,54,45,48,45,40,97,73,47,29.80,29.70,14,3,24,0.00
2014-6-5,70,55,39,47,37,20,94,59,16,29.86,29.79,11,2,16,0.00
2014-6-6,79,58,37,57,47,35,93,69,42,29.87,29.80,7,2,16,0.00
2014-6-7,74,60,47,58,52,46,95,75,48,29.91,29.78,9,2,12,0.00
2014-6-8,69,56,44,57,47,39,95,76,42,29.95,29.80,13,3,20,0.00
2014-6-9,71,56,38,56,46,37,94,72,44,29.99,29.89,9,2,11,0.00
2014-6-10,76,60,44,57,49,43,96,71,34,29.92,29.84,4,1,5,0.00
2014-6-11,71,59,50,60,55,48,97,86,64,29.84,29.65,8,2,12,0.03
2014-6-12,71,62,56,64,59,55,99,91,75,29.64,29.52,11,1,11,0.01
2014-6-13,55,50,44,54,46,41,97,87,76,29.87,29.54,12,3,19,0.00
2014-6-14,66,53,39,52,46,38,96,79,50,30.03,29.87,7,2,12,0.00
2014-6-15,65,58,51,53,50,48,91,77,59,30.03,29.81,22,9,27,0.03
2014-6-16,82,66,50,64,55,49,96,71,39,29.85,29.78,9,2,19,0.10
2014-6-17,70,60,55,66,58,53,97,92,80,29.82,29.59,7,1,14,0.63
2014-6-18,74,61,49,63,57,49,98,86,66,30.01,29.82,12,2,12,0.01
2014-6-19,73,61,48,58,48,41,97,65,34,30.16,30.02,10,3,12,0.00
2014-6-20,62,55,42,55,49,41,96,82,66,30.08,29.92,11,2,13,0.00
2014-6-21,72,62,53,56,52,48,95,73,44,29.94,29.82,8,2,12,0.00
2014-6-22,74,63,52,56,51,47,93,67,44,29.86,29.78,9,3,14,0.00
2014-6-23,72,62,55,64,57,50,95,83,74,29.79,29.72,10,2,14,0.00
2014-6-24,67,60,57,64,59,56,98,94,85,29.86,29.73,10,2,14,1.16
2014-6-25,70,60,54,59,52,45,93,77,64,29.94,29.86,7,3,10,0.00
2014-6-26,76,63,48,57,50,43,89,64,37,29.99,29.92,6,1,9,0.00
2014-6-27,75,62,46,57,50,45,96,69,39,30.01,29.94,10,3,12,0.00
2014-6-28,79,68,55,65,59,52,90,75,58,29.99,29.85,12,4,19,0.00
2014-6-29,77,70,64,70,65,60,95,85,72,29.88,29.65,14,5,18,0.79
2014-6-30,83,72,61,71,66,59,97,82,60,29.68,29.42,12,3,19,0.16
2014-7-1,76,69,63,67,63,60,95,83,67,29.48,29.33,13,4,20,0.22
2014-7-2,63,56,47,61,50,40,95,79,57,29.85,29.48,10,2,17,0.00
2014-7-3,66,54,42,58,49,40,93,83,66,30.00,29.84,9,2,14,0.00
2014-7-4,76,69,57,53,49,45,73,50,35,30.15,30.08,8,2,12,0.00
2014-7-5,76,64,47,59,52,46,95,68,47,30.10,29.81,17,3,22,0.00
2014-7-6,70,64,57,64,60,54,97,89,77,29.81,29.44,7,2,13,0.11
2014-7-7,77,67,57,66,61,55,98,82,55,29.47,29.38,9,2,17,0.01
2014-7-8,61,54,50,55,51,47,96,90,78,29.59,29.39,8,2,16,0.33
2014-7-9,66,55,46,55,49,44,93,82,61,29.93,29.60,10,2,16,0.02
2014-7-10,72,57,41,55,49,40,96,75,44,30.07,29.93,7,1,13,0.00
2014-7-11,74,61,47,61,55,45,96,80,47,30.07,29.97,8,2,10,0.01
2014-7-12,78,68,59,69,63,57,94,82,67,29.97,29.67,7,2,12,0.00
2014-7-13,71,63,50,63,56,48,96,80,53,29.73,29.57,14,3,24,0.00
2014-7-14,71,59,48,61,54,47,96,83,58,29.72,29.66,8,2,11,0.02
2014-7-15,65,55,50,58,53,49,97,92,77,29.71,29.61,7,2,16,0.23
2014-7-16,68,58,48,54,50,45,93,74,49,29.84,29.71,10,3,17,0.00
2014-7-17,76,60,42,56,49,41,97,70,40,29.95,29.84,7,1,13,0.00
2014-7-18,79,64,50,63,55,49,96,76,44,30.05,29.96,10,2,14,0.00
2014-7-19,74,63,49,63,56,48,96,78,53,30.01,29.92,15,4,19,0.00
2014-7-20,77,65,52,65,60,51,95,82,64,29.93,29.88,9,3,13,0.00
2014-7-21,81,69,55,68,63,54,98,81,64,29.91,29.88,8,2,19,0.00
2014-7-22,80,67,52,71,63,50,96,87,70,29.90,29.64,14,3,22,0.04
2014-7-23,69,59,50,57,53,47,96,80,60,30.02,29.82,11,4,19,0.00
2014-7-24,71,58,44,56,51,43,96,78,52,30.03,29.88,10,1,13,0.00
2014-7-25,79,64,46,63,55,45,96,76,51,29.89,29.72,11,2,16,0.01
2014-7-26,71,64,61,66,61,58,93,90,85,29.72,29.60,7,2,9,0.01
2014-7-27,68,65,60,65,61,55,92,84,76,29.74,29.56,14,4,22,0.00
2014-7-28,65,57,48,55,48,44,93,73,57,29.88,29.74,17,4,25,0.00
2014-7-29,67,57,50,58,53,48,96,86,69,29.83,29.77,11,2,17,0.00
2014-7-30,66,56,49,56,52,48,98,86,61,29.89,29.83,7,1,13,0.00
2014-7-31,73,60,51,60,55,50,97,84,59,29.86,29.78,4,1,11,0.00
2014-8-1,75,62,48,60,53,47,97,77,49,30.00,29.86,8,1,12,0.00
2014-8-2,76,62,48,61,55,47,96,79,52,30.05,29.97,5,1,7,0.00
2014-8-3,79,64,50,67,58,48,95,83,56,29.99,29.89,7,1,12,0.00
2014-8-4,75,62,53,63,57,52,98,85,61,29.98,29.92,8,2,13,0.00
2014-8-5,76,62,50,60,54,49,97,78,40,30.00,29.93,7,2,10,0.00
2014-8-6,75,62,49,59,54,48,97,77,52,29.96,29.91,8,1,13,0.00
2014-8-7,56,55,53,54,54,52,97,95,91,29.99,29.96,3,1,6,0.00
2014-8-16,71,64,59,63,60,56,96,84,74,29.80,29.57,11,3,15,0.27
2014-8-17,70,63,57,60,56,53,89,78,66,29.95,29.88,10,2,11,0.00
2014-8-18,66,62,55,59,57,53,94,86,76,29.88,29.72,13,6,17,0.01
2014-8-20,65,60,61,65,60,60,98,92,96,29.80,29.75,4,1,5,0.30
2014-8-21,75,70,64,68,66,63,96,85,75,29.85,29.84,4,1,6,0.01
2014-8-22,78,68,56,69,65,56,99,88,70,29.93,29.86,6,2,8,0.00
2014-8-23,76,65,57,67,62,57,98,91,73,30.01,29.93,10,2,11,0.01
2014-8-24,73,65,57,67,62,56,99,91,79,30.04,29.96,10,4,16,0.00
2014-8-25,74,67,62,71,65,61,97,93,86,29.97,29.78,17,4,17,0.05
2014-8-26,70,63,51,65,58,50,98,83,64,29.98,29.79,14,2,17,0.00
2014-8-27,65,56,48,57,50,46,97,82,55,30.04,29.97,12,2,19,0.01
2014-8-28,70,55,42,55,49,41,98,82,47,30.09,29.99,4,1,7,0.00
2014-8-29,64,58,49,62,56,48,98,94,87,30.01,29.77,16,5,22,0.62
2014-8-30,77,68,63,72,66,62,98,94,82,29.77,29.59,6,2,10,0.22
2014-8-31,71,64,59,67,62,58,98,92,77,29.79,29.62,6,1,9,0.02
2014-9-1,73,65,58,69,64,57,98,94,86,29.78,29.45,13,5,16,0.31
2014-9-2,74,64,53,63,59,52,99,86,63,29.73,29.59,6,1,11,0.00
2014-9-3,79,65,52,64,58,51,99,81,52,29.83,29.73,8,1,16,0.01
2014-9-4,71,65,61,66,62,60,96,90,80,29.85,29.72,19,2,20,0.05
2014-9-7,75,61,43,59,53,43,97,79,55,30.01,29.95,9,2,18,0.00
2014-9-8,73,62,51,61,58,50,98,85,61,30.04,29.91,11,3,16,0.00
2014-9-9,76,65,54,63,59,53,98,83,59,29.92,29.80,9,2,14,0.00
2014-9-10,66,62,46,64,61,44,98,95,92,29.81,29.27,24,8,28,2.09
2014-9-11,53,48,43,46,43,40,96,83,69,30.15,29.42,13,4,19,2.11
2014-9-12,51,46,38,44,39,36,96,78,60,30.28,30.16,9,2,12,0.00
2014-9-13,54,46,39,46,42,37,96,86,67,30.19,30.13,12,2,15,0.20
2014-9-14,57,50,40,49,46,39,97,86,68,30.20,29.94,8,2,15,0.05
2014-9-15,59,51,42,50,45,42,98,84,56,29.98,29.93,11,1,14,0.00
2014-9-16,64,51,38,49,44,38,98,78,48,29.99,29.85,8,2,15,0.01
2014-9-17,62,50,44,54,47,41,97,88,71,29.98,29.78,13,3,17,0.00
2014-9-18,51,44,39,40,37,35,92,78,57,30.15,29.99,13,5,16,0.00
2014-9-19,61,52,37,55,47,35,96,84,77,30.14,29.70,17,8,19,0.05
2014-9-20,69,60,54,64,58,53,97,93,84,29.69,29.48,12,3,22,0.10
2014-9-21,55,52,47,54,46,39,98,83,69,29.93,29.49,24,8,27,0.10
2014-9-22,62,50,37,51,44,36,98,80,60,30.03,29.93,12,1,14,0.00
2014-9-23,74,59,48,60,54,47,98,85,55,30.21,29.99,6,1,8,0.01
2014-9-24,70,57,48,61,54,47,99,90,69,30.30,30.22,9,2,11,0.01
2014-9-25,70,58,48,61,54,47,98,87,67,30.24,30.15,9,1,10,0.01
2014-9-26,74,56,45,63,54,44,98,91,61,30.21,30.14,7,1,9,0.01
2014-9-27,76,59,45,63,54,44,98,85,52,30.20,30.06,9,1,10,0.01
2014-9-28,75,60,48,69,57,47,97,89,73,30.08,29.90,6,1,8,0.01
2014-9-29,60,53,45,59,51,41,97,94,86,29.92,29.82,26,8,26,0.31
2014-9-30,57,49,43,51,45,39,93,85,74,29.98,29.92,21,6,24,0.31
2014-10-1,57,54,51,57,52,49,98,94,86,30.00,29.89,14,5,15,0.00
2014-10-2,59,58,56,58,56,55,97,96,95,29.91,29.62,18,8,20,0.52
2014-10-3,61,56,50,60,55,50,98,96,93,29.61,29.07,17,6,23,1.16
2014-10-4,50,44,38,50,43,37,97,93,85,29.41,29.30,6,1,9,0.30
2014-10-5,48,41,36,43,39,35,98,92,74,29.48,29.37,6,1,14,0.13
2014-10-6,55,45,39,47,41,38,97,88,59,29.46,29.40,10,2,17,0.17
2014-10-7,59,48,42,51,43,39,96,86,53,29.56,29.38,8,2,15,0.03
2014-10-8,47,42,38,41,38,35,97,88,67,29.76,29.54,10,2,18,0.08
2014-10-9,49,43,39,42,39,37,94,86,66,29.96,29.71,14,3,18,0.07
2014-10-10,47,42,33,43,38,32,96,86,74,30.06,29.95,9,2,16,0.03
2014-10-11,51,39,31,41,35,30,98,86,59,30.13,30.05,5,1,12,0.01
2014-10-12,59,45,31,45,38,30,98,81,47,30.05,29.92,18,3,18,0.01
2014-10-13,56,50,41,53,48,39,97,93,88,29.92,29.68,8,2,10,0.26
2014-10-14,60,54,51,60,53,49,99,97,91,29.66,29.47,27,6,30,0.58
2014-10-15,54,52,50,51,50,48,96,91,85,29.78,29.63,14,6,20,0.15
2014-10-16,56,51,47,51,48,46,97,91,81,29.74,29.48,8,2,10,0.15
2014-10-17,51,48,41,50,46,39,98,94,85,29.53,29.29,8,2,18,0.16
2014-10-18,44,39,33,39,33,27,92,78,59,30.04,29.54,14,4,23,0.25
2014-10-19,47,39,29,43,35,27,93,85,72,30.05,29.70,12,3,14,0.05
2014-10-20,50,47,45,48,45,40,97,92,81,29.85,29.61,16,3,20,0.06
2014-10-21,46,42,37,40,34,30,84,74,58,30.25,29.86,17,9,23,0.06
2014-10-22,49,37,27,36,32,26,96,81,57,30.32,30.19,6,2,8,0.00
2014-10-23,53,38,28,44,35,27,97,89,59,30.20,29.96,7,1,9,0.00
2014-10-24,54,47,36,50,45,35,97,92,84,29.96,29.71,5,1,10,0.01
2014-10-25,58,53,49,51,44,37,93,74,55,29.70,29.50,18,5,24,0.01
2014-10-26,48,44,33,39,37,31,92,76,65,29.83,29.57,14,4,25,0.00
2014-10-27,46,39,29,45,38,28,98,95,92,29.87,29.59,27,6,37,0.64
2014-10-28,53,48,43,52,46,40,98,92,82,29.58,29.35,14,4,18,0.07
2014-10-29,45,41,34,40,37,32,94,85,77,29.94,29.57,12,3,18,0.04